Time;durP1;ratioP1;P1;durP2;ratioP2;P2;SDS_P1;SDS_P2;PMS_P1;PMS_P2;Temp;Humidity;BMP_temperature;BMP_pressure;BME280_temperature;BME280_humidity;BME280_pressure;Samples;Min_cycle;Max_cycle;Signal;HPM_P1;HPM_P2
2022/10/17 00:09:44;;;;;;;3.43;1.70;;;13.20;99.90;;;;;;21072956;28;20063;-76
2022/10/17 00:19:45;;;;;;;5.63;2.00;;;13.20;99.90;;;;;;21072095;28;20482;-76
2022/10/17 00:29:50;;;;;;;4.23;2.07;;;13.20;99.90;;;;;;21072802;28;20390;-76
2022/10/17 00:39:50;;;;;;;6.20;2.95;;;13.20;99.90;;;;;;21072199;28;20531;-76
2022/10/17 00:49:51;;;;;;;7.67;2.87;;;13.10;99.90;;;;;;21018528;28;20037;-77
2022/10/17 00:59:55;;;;;;;7.37;2.93;;;12.80;99.90;;;;;;20986961;28;20037;-76
2022/10/17 01:09:56;;;;;;;3.97;2.60;;;12.50;99.90;;;;;;20987357;28;20104;-77
2022/10/17 01:20:05;;;;;;;5.73;2.67;;;12.60;99.90;;;;;;20995794;28;20514;-76
2022/10/17 01:30:21;;;;;;;5.70;2.25;;;12.80;99.90;;;;;;20983728;28;20024;-76
2022/10/17 01:40:31;;;;;;;4.65;1.70;;;12.70;99.90;;;;;;21002197;28;20123;-76
2022/10/17 01:50:38;;;;;;;9.50;2.00;;;12.60;99.90;;;;;;20984680;28;20036;-77
2022/10/17 02:00:41;;;;;;;8.30;1.98;;;12.50;99.90;;;;;;21002497;28;20051;-77
2022/10/17 02:10:54;;;;;;;6.55;1.95;;;12.50;99.90;;;;;;20984009;28;20079;-77
2022/10/17 02:21:00;;;;;;;10.52;2.17;;;12.50;99.90;;;;;;20999836;28;20052;-77
2022/10/17 02:31:16;;;;;;;5.97;2.03;;;12.30;99.90;;;;;;20980134;28;20391;-76
2022/10/17 02:41:20;;;;;;;8.32;3.40;;;12.30;99.90;;;;;;20978677;28;20044;-76
2022/10/17 02:51:21;;;;;;;11.63;2.72;;;12.30;99.90;;;;;;20996835;28;20111;-76
2022/10/17 03:01:23;;;;;;;7.63;3.17;;;12.00;99.90;;;;;;20976878;28;20052;-76
2022/10/17 03:11:24;;;;;;;5.93;2.97;;;11.90;99.90;;;;;;20976324;28;20044;-77
2022/10/17 03:21:25;;;;;;;10.47;3.40;;;11.70;99.90;;;;;;20979106;28;20037;-76
2022/10/17 03:31:26;;;;;;;5.17;2.77;;;12.00;99.90;;;;;;20961688;28;20109;-77
2022/10/17 03:41:27;;;;;;;8.60;2.70;;;12.10;99.90;;;;;;20924451;28;20116;-76
2022/10/17 03:51:28;;;;;;;6.77;2.87;;;12.00;99.90;;;;;;20908707;28;20108;-76
2022/10/17 04:01:35;;;;;;;6.65;2.97;;;12.00;99.90;;;;;;20941281;28;20029;-78
2022/10/17 04:11:36;;;;;;;10.83;2.83;;;12.00;99.90;;;;;;20975284;28;20502;-78
2022/10/17 04:21:39;;;;;;;5.28;2.97;;;12.00;99.90;;;;;;20971172;28;20029;-76
2022/10/17 04:31:41;;;;;;;6.50;2.90;;;11.80;99.90;;;;;;20971485;28;20528;-77
2022/10/17 04:41:55;;;;;;;22.92;2.75;;;12.00;99.90;;;;;;20972408;28;20502;-77
2022/10/17 04:51:56;;;;;;;18.37;3.13;;;11.70;99.90;;;;;;20974953;28;20085;-76
2022/10/17 05:02:01;;;;;;;3.75;2.60;;;11.60;99.90;;;;;;20981597;28;20112;-77
2022/10/17 05:12:02;;;;;;;6.68;3.15;;;11.50;99.90;;;;;;20950066;28;20517;-76
2022/10/17 05:22:04;;;;;;;7.82;2.85;;;11.20;99.90;;;;;;20921597;28;20043;-76
2022/10/17 05:32:05;;;;;;;5.60;2.63;;;11.10;99.90;;;;;;20970486;28;20056;-75
2022/10/17 05:42:08;;;;;;;3.70;2.55;;;10.90;99.90;;;;;;20983023;28;20146;-76
2022/10/17 05:52:10;;;;;;;8.25;2.80;;;10.70;99.90;;;;;;20983166;28;20028;-75
2022/10/17 06:02:25;;;;;;;4.90;3.22;;;10.60;99.90;;;;;;20981580;28;20024;-75
2022/10/17 06:12:26;;;;;;;7.90;3.65;;;10.60;99.90;;;;;;20981316;28;20051;-75
2022/10/17 06:22:27;;;;;;;7.67;3.67;;;10.70;99.90;;;;;;20980344;28;20033;-75
2022/10/17 06:32:30;;;;;;;11.02;3.55;;;10.60;99.90;;;;;;20980817;28;20028;-75
2022/10/17 06:42:30;;;;;;;6.63;4.30;;;10.60;99.90;;;;;;20979807;28;20035;-75
2022/10/17 06:52:57;;;;;;;5.55;4.05;;;10.80;99.90;;;;;;20992492;28;20290;-75
2022/10/17 07:03:18;;;;;;;23.17;5.32;;;11.10;99.90;;;;;;20995757;28;20032;-74
2022/10/17 07:13:19;;;;;;;63.83;7.57;;;11.00;99.90;;;;;;20975775;28;20033;-75
2022/10/17 07:23:21;;;;;;;33.85;7.25;;;11.20;99.90;;;;;;20976023;28;20541;-75
2022/10/17 07:33:22;;;;;;;11.88;5.82;;;11.30;99.90;;;;;;20975325;28;20047;-75
2022/10/17 07:43:24;;;;;;;42.20;7.27;;;11.60;99.90;;;;;;20977143;28;20475;-75
2022/10/17 07:53:26;;;;;;;9.85;5.65;;;11.70;99.90;;;;;;20975420;28;20115;-75
2022/10/17 08:03:28;;;;;;;15.27;6.90;;;11.90;99.90;;;;;;20991163;28;20506;-75
2022/10/17 08:13:29;;;;;;;10.43;6.72;;;12.30;99.90;;;;;;20991572;28;20104;-75
2022/10/17 08:23:29;;;;;;;20.27;7.23;;;12.30;99.90;;;;;;20990856;28;20466;-75
2022/10/17 08:33:32;;;;;;;16.60;6.43;;;12.60;99.90;;;;;;21007570;28;20032;-75
2022/10/17 08:43:41;;;;;;;15.45;7.10;;;12.70;99.90;;;;;;21006364;28;20067;-75
2022/10/17 08:54:02;;;;;;;10.23;6.75;;;12.90;99.90;;;;;;21005347;28;20427;-76
2022/10/17 09:04:21;;;;;;;12.73;6.97;;;13.40;99.90;;;;;;21004836;28;20486;-75
2022/10/17 09:14:48;;;;;;;14.38;7.90;;;14.10;99.90;;;;;;21005063;28;20035;-76
2022/10/17 09:25:02;;;;;;;12.00;7.00;;;15.40;99.90;;;;;;21005900;28;20414;-76
2022/10/17 09:35:03;;;;;;;14.23;6.55;;;16.60;99.90;;;;;;21003486;28;20457;-76
2022/10/17 09:45:15;;;;;;;13.35;6.82;;;17.60;99.90;;;;;;21001812;28;20032;-76
2022/10/17 09:55:42;;;;;;;13.23;6.43;;;17.80;99.90;;;;;;21001271;28;20024;-76
2022/10/17 10:06:03;;;;;;;15.73;6.60;;;18.50;99.90;;;;;;21000055;28;20044;-76
2022/10/17 10:16:20;;;;;;;9.75;6.25;;;18.80;99.90;;;;;;21000981;28;20410;-76
2022/10/17 10:26:21;;;;;;;8.63;5.32;;;19.90;99.90;;;;;;21001092;28;20037;-76
2022/10/17 10:36:22;;;;;;;13.53;6.30;;;20.40;99.90;;;;;;21000185;28;20032;-76
2022/10/17 10:46:26;;;;;;;9.30;6.10;;;20.90;99.90;;;;;;20997594;28;20024;-75
2022/10/17 10:56:39;;;;;;;9.10;4.00;;;21.60;99.90;;;;;;20995812;28;20445;-75
2022/10/17 11:06:43;;;;;;;5.40;3.83;;;21.10;99.90;;;;;;20994945;28;20119;-75
2022/10/17 11:17:19;;;;;;;8.15;3.15;;;22.40;99.90;;;;;;20995167;28;20033;-75
2022/10/17 11:27:19;;;;;;;16.20;3.13;;;22.50;99.90;;;;;;20995159;28;20037;-76
2022/10/17 11:37:22;;;;;;;;;;;22.90;99.90;;;;;;20993396;28;20506;-76
2022/10/17 11:47:41;;;;;;;15.30;4.43;;;22.40;99.90;;;;;;20991722;28;19912;-76
2022/10/17 11:58:12;;;;;;;10.45;3.17;;;24.00;99.90;;;;;;21001995;28;20021;-78
2022/10/17 12:08:53;;;;;;;4.43;2.67;;;24.20;99.90;;;;;;20946323;28;20033;-78
2022/10/17 12:19:00;;;;;;;7.55;3.95;;;24.90;99.90;;;;;;20931362;28;20307;-78
2022/10/17 12:29:01;;;;;;;5.03;2.58;;;24.50;99.90;;;;;;21057381;28;20039;-79
2022/10/17 12:39:01;;;;;;;6.00;2.60;;;25.80;99.90;;;;;;21007045;28;20044;-79
2022/10/17 12:49:04;;;;;;;5.87;2.20;;;26.60;99.90;;;;;;21034492;28;20024;-79
2022/10/17 12:59:14;;;;;;;4.90;2.20;;;25.90;99.90;;;;;;21014722;28;20235;-79
2022/10/17 13:09:28;;;;;;;8.07;2.67;;;25.20;99.90;;;;;;20928462;28;20044;-76
2022/10/17 13:19:41;;;;;;;6.93;2.00;;;25.20;99.90;;;;;;20991095;28;20031;-79
2022/10/17 13:29:43;;;;;;;7.03;2.40;;;26.20;99.90;;;;;;20993365;28;20044;-79
2022/10/17 13:39:46;;;;;;;4.65;1.88;;;25.60;99.90;;;;;;21109560;22;20050;-80
2022/10/17 13:49:47;;;;;;;6.95;2.17;;;25.70;99.90;;;;;;21130897;28;20036;-80
2022/10/17 13:59:52;;;;;;;12.52;2.13;;;26.20;99.90;;;;;;21155534;28;20080;-80
2022/10/17 14:09:53;;;;;;;6.78;2.10;;;26.60;99.90;;;;;;21170095;28;20123;-80
2022/10/17 14:20:02;;;;;;;8.68;1.90;;;26.60;99.90;;;;;;21192558;28;20462;-80
2022/10/17 14:30:26;;;;;;;9.95;2.25;;;26.40;99.90;;;;;;21147982;28;20067;-80
2022/10/17 14:40:29;;;;;;;4.78;1.98;;;26.00;99.90;;;;;;21127699;28;20028;-80
2022/10/17 14:50:32;;;;;;;7.65;3.10;;;26.40;99.90;;;;;;21117819;28;20493;-80
2022/10/17 15:00:32;;;;;;;16.83;2.97;;;26.50;99.90;;;;;;21160289;28;20050;-80
2022/10/17 15:10:35;;;;;;;3.97;1.90;;;25.70;99.90;;;;;;21146600;28;20020;-79
2022/10/17 15:20:37;;;;;;;7.85;1.98;;;25.60;99.90;;;;;;21121664;28;20298;-81
2022/10/17 15:30:38;;;;;;;7.03;1.60;;;26.20;99.90;;;;;;21102178;28;20035;-81
2022/10/17 15:40:40;;;;;;;8.52;2.20;;;25.90;99.90;;;;;;21096068;28;20024;-80
2022/10/17 15:50:41;;;;;;;4.90;2.13;;;24.50;99.90;;;;;;21076115;28;20032;-80
2022/10/17 16:00:42;;;;;;;;;;;22.10;99.90;;;;;;21061090;28;20028;-78
2022/10/17 16:10:43;;;;;;;8.85;2.53;;;20.80;99.90;;;;;;21110221;28;19959;-77
2022/10/17 16:20:43;;;;;;;9.77;2.30;;;20.50;99.90;;;;;;21111481;28;20546;-78
2022/10/17 16:30:45;;;;;;;6.03;2.00;;;19.90;99.90;;;;;;21162630;28;20035;-78
2022/10/17 16:40:45;;;;;;;3.90;2.28;;;19.10;99.90;;;;;;21163375;28;20107;-78
2022/10/17 16:50:46;;;;;;;6.93;3.20;;;18.50;99.90;;;;;;21145754;28;20028;-78
2022/10/17 17:00:47;;;;;;;10.43;2.80;;;17.70;99.90;;;;;;21133586;28;20450;-78
2022/10/17 17:10:52;;;;;;;10.40;2.97;;;17.70;99.90;;;;;;21132171;28;20024;-77
2022/10/17 17:20:58;;;;;;;5.50;3.15;;;18.00;99.90;;;;;;21139182;28;20077;-78
2022/10/17 17:30:58;;;;;;;5.72;3.20;;;16.90;99.90;;;;;;21087834;28;20528;-79
2022/10/17 17:41:00;;;;;;;9.70;3.83;;;16.60;99.90;;;;;;21130457;28;20060;-79
2022/10/17 17:51:05;;;;;;;6.07;3.70;;;16.60;99.90;;;;;;21133682;28;20150;-79
2022/10/17 18:01:10;;;;;;;21.83;6.22;;;16.30;99.90;;;;;;21130455;28;20273;-79
2022/10/17 18:11:11;;;;;;;11.18;4.45;;;16.20;99.90;;;;;;21131150;28;20386;-79
2022/10/17 18:21:13;;;;;;;9.77;4.40;;;15.90;99.90;;;;;;21112054;28;20043;-78
2022/10/17 18:31:21;;;;;;;;;;;15.90;99.90;;;;;;21126905;28;20027;-79
2022/10/17 18:41:23;;;;;;;6.53;4.20;;;15.70;99.90;;;;;;21153576;28;19912;-79
2022/10/17 18:51:25;;;;;;;15.60;5.85;;;15.70;99.90;;;;;;21126250;28;20062;-78
2022/10/17 19:01:26;;;;;;;23.02;5.88;;;15.40;99.90;;;;;;21105262;28;20123;-78
2022/10/17 19:11:29;;;;;;;23.38;4.07;;;15.00;99.90;;;;;;21094294;28;20044;-78
2022/10/17 19:21:30;;;;;;;11.43;5.20;;;15.00;99.90;;;;;;21021342;28;20032;-79
2022/10/17 19:31:32;;;;;;;10.40;4.28;;;15.00;99.90;;;;;;21152502;28;20032;-79
2022/10/17 19:41:44;;;;;;;7.43;4.22;;;14.60;99.90;;;;;;21070518;22;20226;-76
2022/10/17 19:51:45;;;;;;;;;;;14.60;99.90;;;;;;21022040;28;20107;-76
2022/10/17 20:01:46;;;;;;;8.48;4.20;;;14.60;99.90;;;;;;21076672;28;19912;-76
2022/10/17 20:11:48;;;;;;;9.87;4.30;;;14.10;99.90;;;;;;21016248;28;20037;-75
2022/10/17 20:21:49;;;;;;;16.00;4.07;;;14.20;99.90;;;;;;21039132;28;20028;-76
2022/10/17 20:31:50;;;;;;;9.43;3.60;;;14.30;99.90;;;;;;21033781;28;20535;-77
2022/10/17 20:41:50;;;;;;;5.67;3.43;;;14.30;99.90;;;;;;21038196;28;20051;-76
2022/10/17 20:51:51;;;;;;;14.37;3.60;;;14.40;99.90;;;;;;21027182;28;20107;-76
2022/10/17 21:01:53;;;;;;;11.43;3.60;;;14.50;99.90;;;;;;20990588;28;20074;-77
2022/10/17 21:11:55;;;;;;;8.00;3.58;;;14.50;99.90;;;;;;21045150;28;20494;-76
2022/10/17 21:21:56;;;;;;;12.80;3.53;;;14.10;99.90;;;;;;21036637;28;20055;-76
2022/10/17 21:31:57;;;;;;;12.37;4.03;;;14.10;99.90;;;;;;21015319;28;20024;-76
2022/10/17 21:41:57;;;;;;;9.83;4.33;;;14.10;99.90;;;;;;21044931;28;20040;-75
2022/10/17 21:51:58;;;;;;;11.83;3.10;;;13.90;99.90;;;;;;21047118;28;20088;-76
2022/10/17 22:01:59;;;;;;;11.17;3.53;;;13.90;99.90;;;;;;21022982;28;20036;-78
2022/10/17 22:12:00;;;;;;;8.53;3.40;;;13.80;99.90;;;;;;21084533;28;20035;-77
2022/10/17 22:22:01;;;;;;;10.23;3.40;;;13.80;99.90;;;;;;21083276;28;20068;-77
2022/10/17 22:32:02;;;;;;;13.47;3.30;;;14.00;99.90;;;;;;21002664;28;20028;-77
2022/10/17 22:42:02;;;;;;;10.40;4.10;;;13.90;99.90;;;;;;20981139;28;20048;-74
2022/10/17 22:52:03;;;;;;;9.33;4.33;;;13.90;99.90;;;;;;20998105;28;20471;-76
2022/10/17 23:02:04;;;;;;;13.10;4.70;;;13.90;99.90;;;;;;20996746;28;20376;-76
2022/10/17 23:12:05;;;;;;;18.67;4.43;;;14.00;99.90;;;;;;20999069;28;20056;-76
2022/10/17 23:22:07;;;;;;;13.83;4.83;;;13.80;99.90;;;;;;20995281;28;20029;-76
2022/10/17 23:32:08;;;;;;;12.25;4.90;;;14.00;99.90;;;;;;20994908;28;20549;-76
2022/10/17 23:42:09;;;;;;;20.57;4.40;;;14.00;99.90;;;;;;20994648;28;20090;-75
2022/10/17 23:52:09;;;;;;;11.83;4.53;;;14.00;99.90;;;;;;20995324;28;20040;-77
